sensor_id;sensor_type;location;lat;lon;timestamp;temperature;humidity
3842;DHT22;1936;47.074;15.336;2024-02-26T00:00:14;0.40;99.90
3842;DHT22;1936;47.074;15.336;2024-02-26T00:02:18;0.30;99.90
3842;DHT22;1936;47.074;15.336;2024-02-26T00:04:21;0.40;99.90
3842;DHT22;1936;47.074;15.336;2024-02-26T00:06:24;0.40;99.90
3842;DHT22;1936;47.074;15.336;2024-02-26T00:08:28;0.30;99.90
3842;DHT22;1936;47.074;15.336;2024-02-26T00:10:31;0.10;99.90
3842;DHT22;1936;47.074;15.336;2024-02-26T00:12:35;0.20;99.90
3842;DHT22;1936;47.074;15.336;2024-02-26T00:14:38;0.20;99.90
3842;DHT22;1936;47.074;15.336;2024-02-26T00:16:44;0.10;99.90
3842;DHT22;1936;47.074;15.336;2024-02-26T00:18:48;0.10;99.90
3842;DHT22;1936;47.074;15.336;2024-02-26T00:20:52;0.10;99.90
3842;DHT22;1936;47.074;15.336;2024-02-26T00:22:56;0.10;99.90
3842;DHT22;1936;47.074;15.336;2024-02-26T00:24:59;0.20;99.90
3842;DHT22;1936;47.074;15.336;2024-02-26T00:27:03;0.10;99.90
3842;DHT22;1936;47.074;15.336;2024-02-26T00:29:06;0.00;99.90
3842;DHT22;1936;47.074;15.336;2024-02-26T00:31:10;0.00;99.90
3842;DHT22;1936;47.074;15.336;2024-02-26T00:33:17;-0.10;99.90
3842;DHT22;1936;47.074;15.336;2024-02-26T00:35:20;-0.10;99.90
3842;DHT22;1936;47.074;15.336;2024-02-26T00:37:24;-0.10;99.90
3842;DHT22;1936;47.074;15.336;2024-02-26T00:39:27;0.10;99.90
3842;DHT22;1936;47.074;15.336;2024-02-26T00:41:30;0.00;99.90
3842;DHT22;1936;47.074;15.336;2024-02-26T00:43:34;0.00;99.90
3842;DHT22;1936;47.074;15.336;2024-02-26T00:45:37;0.00;99.90
3842;DHT22;1936;47.074;15.336;2024-02-26T00:47:41;0.00;99.90
3842;DHT22;1936;47.074;15.336;2024-02-26T00:49:46;0.00;99.90
3842;DHT22;1936;47.074;15.336;2024-02-26T00:51:49;0.10;99.90
3842;DHT22;1936;47.074;15.336;2024-02-26T00:55:56;0.10;99.90
3842;DHT22;1936;47.074;15.336;2024-02-26T00:58:01;0.20;99.90
3842;DHT22;1936;47.074;15.336;2024-02-26T01:00:05;0.30;99.90
3842;DHT22;1936;47.074;15.336;2024-02-26T01:02:11;0.30;99.90
3842;DHT22;1936;47.074;15.336;2024-02-26T01:04:14;0.30;99.90
3842;DHT22;1936;47.074;15.336;2024-02-26T01:06:19;0.20;99.90
3842;DHT22;1936;47.074;15.336;2024-02-26T01:08:24;0.20;99.90
3842;DHT22;1936;47.074;15.336;2024-02-26T01:10:28;0.30;99.90
3842;DHT22;1936;47.074;15.336;2024-02-26T01:12:31;0.20;99.90
3842;DHT22;1936;47.074;15.336;2024-02-26T01:14:35;0.10;99.90
3842;DHT22;1936;47.074;15.336;2024-02-26T01:16:39;-0.10;99.90
3842;DHT22;1936;47.074;15.336;2024-02-26T01:18:42;-0.10;99.90
3842;DHT22;1936;47.074;15.336;2024-02-26T01:20:46;-0.10;99.90
3842;DHT22;1936;47.074;15.336;2024-02-26T01:22:51;0.00;99.90
3842;DHT22;1936;47.074;15.336;2024-02-26T01:24:54;0.00;99.90
3842;DHT22;1936;47.074;15.336;2024-02-26T01:26:58;-0.10;99.90
3842;DHT22;1936;47.074;15.336;2024-02-26T01:29:02;0.00;99.90
3842;DHT22;1936;47.074;15.336;2024-02-26T01:31:06;0.00;99.90
3842;DHT22;1936;47.074;15.336;2024-02-26T01:33:10;0.00;99.90
3842;DHT22;1936;47.074;15.336;2024-02-26T01:35:14;-0.10;99.90
3842;DHT22;1936;47.074;15.336;2024-02-26T01:37:17;-0.10;99.90
3842;DHT22;1936;47.074;15.336;2024-02-26T01:39:23;-0.10;99.90
3842;DHT22;1936;47.074;15.336;2024-02-26T01:41:26;-0.20;99.90
3842;DHT22;1936;47.074;15.336;2024-02-26T01:43:29;-0.20;99.90
3842;DHT22;1936;47.074;15.336;2024-02-26T01:45:32;-0.30;99.90
3842;DHT22;1936;47.074;15.336;2024-02-26T01:47:36;-0.20;99.90
3842;DHT22;1936;47.074;15.336;2024-02-26T01:49:40;-0.20;99.90
3842;DHT22;1936;47.074;15.336;2024-02-26T01:51:44;-0.10;99.90
3842;DHT22;1936;47.074;15.336;2024-02-26T01:53:48;-0.30;99.90
3842;DHT22;1936;47.074;15.336;2024-02-26T01:55:53;-0.30;99.90
3842;DHT22;1936;47.074;15.336;2024-02-26T01:57:57;-0.30;99.90
3842;DHT22;1936;47.074;15.336;2024-02-26T02:00:00;-0.30;99.90
3842;DHT22;1936;47.074;15.336;2024-02-26T02:02:08;-0.20;99.90
3842;DHT22;1936;47.074;15.336;2024-02-26T02:04:19;-0.20;99.90
3842;DHT22;1936;47.074;15.336;2024-02-26T02:06:27;-0.20;99.90
3842;DHT22;1936;47.074;15.336;2024-02-26T02:08:32;-0.20;99.90
3842;DHT22;1936;47.074;15.336;2024-02-26T02:10:37;-0.30;99.90
3842;DHT22;1936;47.074;15.336;2024-02-26T02:12:43;-0.30;99.90
3842;DHT22;1936;47.074;15.336;2024-02-26T02:14:47;-0.30;99.90
3842;DHT22;1936;47.074;15.336;2024-02-26T02:16:50;-0.30;99.90
3842;DHT22;1936;47.074;15.336;2024-02-26T02:18:54;-0.40;99.90
3842;DHT22;1936;47.074;15.336;2024-02-26T02:21:00;-0.40;99.90
3842;DHT22;1936;47.074;15.336;2024-02-26T02:23:04;-0.50;99.90
3842;DHT22;1936;47.074;15.336;2024-02-26T02:25:08;-0.50;99.90
3842;DHT22;1936;47.074;15.336;2024-02-26T02:27:11;-0.50;99.90
3842;DHT22;1936;47.074;15.336;2024-02-26T02:29:14;-0.50;99.90
3842;DHT22;1936;47.074;15.336;2024-02-26T02:31:18;-0.40;99.90
3842;DHT22;1936;47.074;15.336;2024-02-26T02:33:22;-0.40;99.90
3842;DHT22;1936;47.074;15.336;2024-02-26T02:35:26;-0.50;99.90
3842;DHT22;1936;47.074;15.336;2024-02-26T02:37:31;-0.60;99.90
3842;DHT22;1936;47.074;15.336;2024-02-26T02:39:34;-0.40;99.90
3842;DHT22;1936;47.074;15.336;2024-02-26T02:41:37;-0.50;99.90
3842;DHT22;1936;47.074;15.336;2024-02-26T02:43:41;-0.40;99.90
3842;DHT22;1936;47.074;15.336;2024-02-26T02:45:44;-0.30;99.90
3842;DHT22;1936;47.074;15.336;2024-02-26T02:47:48;-0.20;99.90
3842;DHT22;1936;47.074;15.336;2024-02-26T02:49:52;-0.20;99.90
3842;DHT22;1936;47.074;15.336;2024-02-26T02:51:55;-0.40;99.90
3842;DHT22;1936;47.074;15.336;2024-02-26T02:54:01;-0.50;99.90
3842;DHT22;1936;47.074;15.336;2024-02-26T02:56:05;-0.50;99.90
3842;DHT22;1936;47.074;15.336;2024-02-26T02:58:08;-0.50;99.90
3842;DHT22;1936;47.074;15.336;2024-02-26T03:00:13;-0.60;99.90
3842;DHT22;1936;47.074;15.336;2024-02-26T03:02:16;-0.50;99.90
3842;DHT22;1936;47.074;15.336;2024-02-26T03:04:19;-0.60;99.90
3842;DHT22;1936;47.074;15.336;2024-02-26T03:06:22;-0.60;99.90
3842;DHT22;1936;47.074;15.336;2024-02-26T03:08:28;-0.60;99.90
3842;DHT22;1936;47.074;15.336;2024-02-26T03:10:33;-0.70;99.90
3842;DHT22;1936;47.074;15.336;2024-02-26T03:12:37;-0.80;99.90
3842;DHT22;1936;47.074;15.336;2024-02-26T03:14:41;-0.80;99.90
3842;DHT22;1936;47.074;15.336;2024-02-26T03:16:44;-1.00;99.90
3842;DHT22;1936;47.074;15.336;2024-02-26T03:18:48;-0.90;99.90
3842;DHT22;1936;47.074;15.336;2024-02-26T03:20:51;-0.90;99.90
3842;DHT22;1936;47.074;15.336;2024-02-26T03:22:55;-0.80;99.90
3842;DHT22;1936;47.074;15.336;2024-02-26T03:24:58;-0.80;99.90
3842;DHT22;1936;47.074;15.336;2024-02-26T03:27:03;-0.80;99.90
3842;DHT22;1936;47.074;15.336;2024-02-26T03:29:11;-0.90;99.90
3842;DHT22;1936;47.074;15.336;2024-02-26T03:31:15;-1.00;99.90
3842;DHT22;1936;47.074;15.336;2024-02-26T03:33:18;-1.00;99.90
3842;DHT22;1936;47.074;15.336;2024-02-26T03:35:22;-1.00;99.90
3842;DHT22;1936;47.074;15.336;2024-02-26T03:37:25;-1.20;99.90
3842;DHT22;1936;47.074;15.336;2024-02-26T03:39:29;-1.10;99.90
3842;DHT22;1936;47.074;15.336;2024-02-26T03:41:33;-1.10;99.90
3842;DHT22;1936;47.074;15.336;2024-02-26T03:43:38;-1.10;99.90
3842;DHT22;1936;47.074;15.336;2024-02-26T03:45:42;-0.90;99.90
3842;DHT22;1936;47.074;15.336;2024-02-26T03:47:45;-0.90;99.90
3842;DHT22;1936;47.074;15.336;2024-02-26T03:49:48;-0.90;99.90
3842;DHT22;1936;47.074;15.336;2024-02-26T03:51:51;-1.00;99.90
3842;DHT22;1936;47.074;15.336;2024-02-26T03:53:55;-1.00;99.90
3842;DHT22;1936;47.074;15.336;2024-02-26T03:55:58;-0.90;99.90
3842;DHT22;1936;47.074;15.336;2024-02-26T03:58:06;-1.10;99.90
3842;DHT22;1936;47.074;15.336;2024-02-26T04:00:11;-1.10;99.90
3842;DHT22;1936;47.074;15.336;2024-02-26T04:02:16;-1.10;99.90
3842;DHT22;1936;47.074;15.336;2024-02-26T04:04:21;-1.20;99.90
3842;DHT22;1936;47.074;15.336;2024-02-26T04:06:25;-1.10;99.90
3842;DHT22;1936;47.074;15.336;2024-02-26T04:08:28;-1.20;99.90
3842;DHT22;1936;47.074;15.336;2024-02-26T04:10:32;-1.20;99.90
3842;DHT22;1936;47.074;15.336;2024-02-26T04:12:38;-1.10;99.90
3842;DHT22;1936;47.074;15.336;2024-02-26T04:14:43;-1.10;99.90
3842;DHT22;1936;47.074;15.336;2024-02-26T04:16:48;-1.10;99.90
3842;DHT22;1936;47.074;15.336;2024-02-26T04:18:54;-1.10;99.90
3842;DHT22;1936;47.074;15.336;2024-02-26T04:20:56;-1.10;99.90
3842;DHT22;1936;47.074;15.336;2024-02-26T04:23:00;-1.20;99.90
3842;DHT22;1936;47.074;15.336;2024-02-26T04:25:04;-1.30;99.90
3842;DHT22;1936;47.074;15.336;2024-02-26T04:27:07;-1.20;99.90
3842;DHT22;1936;47.074;15.336;2024-02-26T04:29:11;-1.30;99.90
3842;DHT22;1936;47.074;15.336;2024-02-26T04:31:15;-1.20;99.90
3842;DHT22;1936;47.074;15.336;2024-02-26T04:33:19;-1.30;99.90
3842;DHT22;1936;47.074;15.336;2024-02-26T04:35:23;-1.30;99.90
3842;DHT22;1936;47.074;15.336;2024-02-26T04:37:27;-1.30;99.90
3842;DHT22;1936;47.074;15.336;2024-02-26T04:39:33;-1.40;99.90
3842;DHT22;1936;47.074;15.336;2024-02-26T04:41:37;-1.40;99.90
3842;DHT22;1936;47.074;15.336;2024-02-26T04:43:40;-1.50;99.90
3842;DHT22;1936;47.074;15.336;2024-02-26T04:45:43;-1.40;99.90
3842;DHT22;1936;47.074;15.336;2024-02-26T04:47:47;-1.30;99.90
3842;DHT22;1936;47.074;15.336;2024-02-26T04:49:52;-1.30;99.90
3842;DHT22;1936;47.074;15.336;2024-02-26T04:51:56;-1.40;99.90
3842;DHT22;1936;47.074;15.336;2024-02-26T04:53:58;-1.30;99.90
3842;DHT22;1936;47.074;15.336;2024-02-26T04:56:02;-1.40;99.90
3842;DHT22;1936;47.074;15.336;2024-02-26T04:58:05;-1.40;99.90
3842;DHT22;1936;47.074;15.336;2024-02-26T05:00:10;-1.40;99.90
3842;DHT22;1936;47.074;15.336;2024-02-26T05:02:14;-1.30;99.90
3842;DHT22;1936;47.074;15.336;2024-02-26T05:04:17;-1.40;99.90
3842;DHT22;1936;47.074;15.336;2024-02-26T05:06:23;-1.50;99.90
3842;DHT22;1936;47.074;15.336;2024-02-26T05:08:26;-1.40;99.90
3842;DHT22;1936;47.074;15.336;2024-02-26T05:10:28;-1.40;99.90
3842;DHT22;1936;47.074;15.336;2024-02-26T05:12:32;-1.40;99.90
3842;DHT22;1936;47.074;15.336;2024-02-26T05:14:37;-1.40;99.90
3842;DHT22;1936;47.074;15.336;2024-02-26T05:16:40;-1.50;99.90
3842;DHT22;1936;47.074;15.336;2024-02-26T05:18:44;-1.50;99.90
3842;DHT22;1936;47.074;15.336;2024-02-26T05:20:48;-1.50;99.90
3842;DHT22;1936;47.074;15.336;2024-02-26T05:22:53;-1.50;99.90
3842;DHT22;1936;47.074;15.336;2024-02-26T05:24:55;-1.40;99.90
3842;DHT22;1936;47.074;15.336;2024-02-26T05:26:59;-1.40;99.90
3842;DHT22;1936;47.074;15.336;2024-02-26T05:29:03;-1.40;99.90
3842;DHT22;1936;47.074;15.336;2024-02-26T05:31:06;-1.40;99.90
3842;DHT22;1936;47.074;15.336;2024-02-26T05:33:10;-1.40;99.90
3842;DHT22;1936;47.074;15.336;2024-02-26T05:35:16;-1.40;99.90
3842;DHT22;1936;47.074;15.336;2024-02-26T05:37:20;-1.40;99.90
3842;DHT22;1936;47.074;15.336;2024-02-26T05:39:25;-1.40;99.90
3842;DHT22;1936;47.074;15.336;2024-02-26T05:41:28;-1.50;99.90
3842;DHT22;1936;47.074;15.336;2024-02-26T05:43:32;-1.40;99.90
3842;DHT22;1936;47.074;15.336;2024-02-26T05:45:36;-1.40;99.90
3842;DHT22;1936;47.074;15.336;2024-02-26T05:47:39;-1.20;99.90
3842;DHT22;1936;47.074;15.336;2024-02-26T05:49:45;-1.20;99.90
3842;DHT22;1936;47.074;15.336;2024-02-26T05:51:48;-1.10;99.90
3842;DHT22;1936;47.074;15.336;2024-02-26T05:53:51;-1.10;99.90
3842;DHT22;1936;47.074;15.336;2024-02-26T05:55:58;-1.20;99.90
3842;DHT22;1936;47.074;15.336;2024-02-26T05:58:02;-1.00;99.90
3842;DHT22;1936;47.074;15.336;2024-02-26T06:00:06;-1.00;99.90
3842;DHT22;1936;47.074;15.336;2024-02-26T06:02:15;-1.00;99.90
3842;DHT22;1936;47.074;15.336;2024-02-26T06:04:18;-1.00;99.90
3842;DHT22;1936;47.074;15.336;2024-02-26T06:06:23;-1.00;99.90
3842;DHT22;1936;47.074;15.336;2024-02-26T06:08:28;-1.10;99.90
3842;DHT22;1936;47.074;15.336;2024-02-26T06:11:18;-1.00;99.90
3842;DHT22;1936;47.074;15.336;2024-02-26T06:13:22;-0.90;99.90
3842;DHT22;1936;47.074;15.336;2024-02-26T06:15:25;-0.80;99.90
3842;DHT22;1936;47.074;15.336;2024-02-26T06:17:29;-0.70;99.90
3842;DHT22;1936;47.074;15.336;2024-02-26T06:19:32;-0.70;99.90
3842;DHT22;1936;47.074;15.336;2024-02-26T06:21:36;-0.70;99.90
3842;DHT22;1936;47.074;15.336;2024-02-26T06:23:39;-0.60;99.90
3842;DHT22;1936;47.074;15.336;2024-02-26T06:25:42;-0.50;99.90
3842;DHT22;1936;47.074;15.336;2024-02-26T06:27:47;-0.40;99.90
3842;DHT22;1936;47.074;15.336;2024-02-26T06:29:50;-0.40;99.90
3842;DHT22;1936;47.074;15.336;2024-02-26T06:31:58;-0.20;99.90
3842;DHT22;1936;47.074;15.336;2024-02-26T06:34:01;-0.20;99.90
3842;DHT22;1936;47.074;15.336;2024-02-26T06:36:06;0.00;99.90
3842;DHT22;1936;47.074;15.336;2024-02-26T06:38:08;0.00;99.90
3842;DHT22;1936;47.074;15.336;2024-02-26T06:40:13;0.10;99.90
3842;DHT22;1936;47.074;15.336;2024-02-26T06:42:16;0.10;99.90
3842;DHT22;1936;47.074;15.336;2024-02-26T06:44:21;0.00;99.90
3842;DHT22;1936;47.074;15.336;2024-02-26T06:46:25;0.20;99.90
3842;DHT22;1936;47.074;15.336;2024-02-26T06:48:28;0.30;99.90
3842;DHT22;1936;47.074;15.336;2024-02-26T06:50:31;0.30;99.90
3842;DHT22;1936;47.074;15.336;2024-02-26T06:52:35;0.30;99.90
3842;DHT22;1936;47.074;15.336;2024-02-26T06:54:38;0.40;99.90
3842;DHT22;1936;47.074;15.336;2024-02-26T06:56:42;0.50;99.90
3842;DHT22;1936;47.074;15.336;2024-02-26T06:58:45;0.70;99.90
3842;DHT22;1936;47.074;15.336;2024-02-26T07:00:50;0.80;99.90
3842;DHT22;1936;47.074;15.336;2024-02-26T07:02:54;0.90;99.90
3842;DHT22;1936;47.074;15.336;2024-02-26T07:04:57;1.10;99.90
3842;DHT22;1936;47.074;15.336;2024-02-26T07:07:01;1.10;99.90
3842;DHT22;1936;47.074;15.336;2024-02-26T07:09:04;1.20;99.90
3842;DHT22;1936;47.074;15.336;2024-02-26T07:11:08;1.30;99.90
3842;DHT22;1936;47.074;15.336;2024-02-26T07:13:12;1.30;99.90
3842;DHT22;1936;47.074;15.336;2024-02-26T07:15:15;1.40;99.90
3842;DHT22;1936;47.074;15.336;2024-02-26T07:17:20;1.40;99.90
3842;DHT22;1936;47.074;15.336;2024-02-26T07:19:23;1.50;99.90
3842;DHT22;1936;47.074;15.336;2024-02-26T07:21:26;1.80;99.90
3842;DHT22;1936;47.074;15.336;2024-02-26T07:23:30;2.00;99.90
3842;DHT22;1936;47.074;15.336;2024-02-26T07:27:37;2.20;99.90
3842;DHT22;1936;47.074;15.336;2024-02-26T07:29:40;2.30;99.90
3842;DHT22;1936;47.074;15.336;2024-02-26T07:31:44;2.40;99.90
3842;DHT22;1936;47.074;15.336;2024-02-26T07:35:53;3.70;99.90
3842;DHT22;1936;47.074;15.336;2024-02-26T07:37:57;5.30;99.90
3842;DHT22;1936;47.074;15.336;2024-02-26T07:40:00;6.10;99.90
3842;DHT22;1936;47.074;15.336;2024-02-26T07:52:26;11.60;82.40
3842;DHT22;1936;47.074;15.336;2024-02-26T07:54:30;12.50;75.70
3842;DHT22;1936;47.074;15.336;2024-02-26T07:56:33;13.00;72.60
3842;DHT22;1936;47.074;15.336;2024-02-26T07:58:37;12.80;76.90
3842;DHT22;1936;47.074;15.336;2024-02-26T08:00:40;13.60;74.40
3842;DHT22;1936;47.074;15.336;2024-02-26T08:02:44;12.40;69.30
3842;DHT22;1936;47.074;15.336;2024-02-26T08:04:46;13.50;71.10
3842;DHT22;1936;47.074;15.336;2024-02-26T08:06:51;14.30;63.60
3842;DHT22;1936;47.074;15.336;2024-02-26T08:08:55;13.50;66.10
3842;DHT22;1936;47.074;15.336;2024-02-26T08:10:58;13.60;67.70
3842;DHT22;1936;47.074;15.336;2024-02-26T08:13:02;14.30;67.10
3842;DHT22;1936;47.074;15.336;2024-02-26T08:15:08;14.40;65.30
3842;DHT22;1936;47.074;15.336;2024-02-26T08:17:13;15.10;64.10
3842;DHT22;1936;47.074;15.336;2024-02-26T08:19:16;15.10;63.40
3842;DHT22;1936;47.074;15.336;2024-02-26T08:21:20;14.70;62.40
3842;DHT22;1936;47.074;15.336;2024-02-26T08:23:25;15.30;61.70
3842;DHT22;1936;47.074;15.336;2024-02-26T08:25:28;15.70;59.50
3842;DHT22;1936;47.074;15.336;2024-02-26T08:27:32;16.20;59.70
3842;DHT22;1936;47.074;15.336;2024-02-26T08:29:35;15.80;58.20
3842;DHT22;1936;47.074;15.336;2024-02-26T08:31:38;15.00;59.70
3842;DHT22;1936;47.074;15.336;2024-02-26T08:33:42;15.60;59.80
3842;DHT22;1936;47.074;15.336;2024-02-26T08:35:45;15.20;59.10
3842;DHT22;1936;47.074;15.336;2024-02-26T08:37:49;15.40;58.20
3842;DHT22;1936;47.074;15.336;2024-02-26T08:39:54;14.70;56.80
3842;DHT22;1936;47.074;15.336;2024-02-26T08:41:57;14.90;60.10
3842;DHT22;1936;47.074;15.336;2024-02-26T08:44:01;16.10;54.70
3842;DHT22;1936;47.074;15.336;2024-02-26T08:46:04;16.10;56.20
3842;DHT22;1936;47.074;15.336;2024-02-26T08:48:10;17.00;53.80
3842;DHT22;1936;47.074;15.336;2024-02-26T08:50:14;16.50;55.50
3842;DHT22;1936;47.074;15.336;2024-02-26T08:52:17;16.50;60.00
3842;DHT22;1936;47.074;15.336;2024-02-26T08:54:21;16.60;60.90
3842;DHT22;1936;47.074;15.336;2024-02-26T08:56:29;16.60;59.70
3842;DHT22;1936;47.074;15.336;2024-02-26T08:58:33;17.60;61.00
3842;DHT22;1936;47.074;15.336;2024-02-26T09:00:36;17.70;58.10
3842;DHT22;1936;47.074;15.336;2024-02-26T09:02:40;18.70;56.80
3842;DHT22;1936;47.074;15.336;2024-02-26T09:04:44;18.90;56.10
3842;DHT22;1936;47.074;15.336;2024-02-26T09:06:48;18.60;56.20
3842;DHT22;1936;47.074;15.336;2024-02-26T09:08:51;18.20;56.50
3842;DHT22;1936;47.074;15.336;2024-02-26T09:10:53;18.40;56.00
3842;DHT22;1936;47.074;15.336;2024-02-26T09:12:58;18.40;54.90
3842;DHT22;1936;47.074;15.336;2024-02-26T09:15:02;17.80;57.10
3842;DHT22;1936;47.074;15.336;2024-02-26T09:17:06;17.00;55.60
3842;DHT22;1936;47.074;15.336;2024-02-26T09:19:09;15.60;58.60
3842;DHT22;1936;47.074;15.336;2024-02-26T09:21:13;15.30;62.20
3842;DHT22;1936;47.074;15.336;2024-02-26T09:23:18;15.80;60.90
3842;DHT22;1936;47.074;15.336;2024-02-26T09:25:21;15.50;63.30
3842;DHT22;1936;47.074;15.336;2024-02-26T09:27:24;15.10;60.80
3842;DHT22;1936;47.074;15.336;2024-02-26T09:29:28;16.50;61.50
3842;DHT22;1936;47.074;15.336;2024-02-26T09:31:32;16.90;57.90
3842;DHT22;1936;47.074;15.336;2024-02-26T09:33:36;17.10;56.00
3842;DHT22;1936;47.074;15.336;2024-02-26T09:35:40;16.60;57.10
3842;DHT22;1936;47.074;15.336;2024-02-26T09:37:43;15.50;59.70
3842;DHT22;1936;47.074;15.336;2024-02-26T09:39:47;14.60;60.90
3842;DHT22;1936;47.074;15.336;2024-02-26T09:41:50;14.40;64.70
3842;DHT22;1936;47.074;15.336;2024-02-26T09:43:56;15.20;63.00
3842;DHT22;1936;47.074;15.336;2024-02-26T09:46:03;15.80;61.80
3842;DHT22;1936;47.074;15.336;2024-02-26T09:48:08;15.00;60.10
3842;DHT22;1936;47.074;15.336;2024-02-26T09:50:13;14.30;62.40
3842;DHT22;1936;47.074;15.336;2024-02-26T09:52:17;13.90;62.60
3842;DHT22;1936;47.074;15.336;2024-02-26T09:54:23;14.80;60.60
3842;DHT22;1936;47.074;15.336;2024-02-26T09:56:29;15.60;64.50
3842;DHT22;1936;47.074;15.336;2024-02-26T09:58:35;16.70;64.40
3842;DHT22;1936;47.074;15.336;2024-02-26T10:00:40;17.00;67.30
3842;DHT22;1936;47.074;15.336;2024-02-26T10:02:45;17.90;58.00
3842;DHT22;1936;47.074;15.336;2024-02-26T10:04:50;18.70;54.10
3842;DHT22;1936;47.074;15.336;2024-02-26T10:06:56;17.70;56.00
3842;DHT22;1936;47.074;15.336;2024-02-26T10:09:02;18.10;55.60
3842;DHT22;1936;47.074;15.336;2024-02-26T10:11:08;18.30;53.20
3842;DHT22;1936;47.074;15.336;2024-02-26T10:13:10;18.20;54.10
3842;DHT22;1936;47.074;15.336;2024-02-26T10:15:14;19.30;57.60
3842;DHT22;1936;47.074;15.336;2024-02-26T10:17:19;19.60;50.00
3842;DHT22;1936;47.074;15.336;2024-02-26T10:19:27;19.00;69.00
3842;DHT22;1936;47.074;15.336;2024-02-26T10:21:31;17.60;54.80
3842;DHT22;1936;47.074;15.336;2024-02-26T10:23:35;17.50;51.70
3842;DHT22;1936;47.074;15.336;2024-02-26T10:25:52;17.40;54.80
3842;DHT22;1936;47.074;15.336;2024-02-26T10:27:58;17.20;51.80
3842;DHT22;1936;47.074;15.336;2024-02-26T10:30:05;17.10;54.30
3842;DHT22;1936;47.074;15.336;2024-02-26T10:34:23;18.40;48.30
3842;DHT22;1936;47.074;15.336;2024-02-26T10:36:33;18.70;47.00
3842;DHT22;1936;47.074;15.336;2024-02-26T10:38:49;18.40;47.40
3842;DHT22;1936;47.074;15.336;2024-02-26T10:40:56;18.50;46.10
3842;DHT22;1936;47.074;15.336;2024-02-26T10:42:58;18.40;47.60
3842;DHT22;1936;47.074;15.336;2024-02-26T10:45:03;18.60;47.40
3842;DHT22;1936;47.074;15.336;2024-02-26T10:47:08;18.00;47.90
3842;DHT22;1936;47.074;15.336;2024-02-26T10:49:14;19.20;48.30
3842;DHT22;1936;47.074;15.336;2024-02-26T10:51:23;20.10;43.80
3842;DHT22;1936;47.074;15.336;2024-02-26T10:53:29;20.20;42.20
3842;DHT22;1936;47.074;15.336;2024-02-26T10:55:35;19.80;43.30
3842;DHT22;1936;47.074;15.336;2024-02-26T10:57:40;20.50;42.30
3842;DHT22;1936;47.074;15.336;2024-02-26T10:59:45;20.30;43.00
3842;DHT22;1936;47.074;15.336;2024-02-26T11:01:49;20.00;43.10
3842;DHT22;1936;47.074;15.336;2024-02-26T11:03:54;19.00;46.10
3842;DHT22;1936;47.074;15.336;2024-02-26T11:05:59;17.70;47.10
3842;DHT22;1936;47.074;15.336;2024-02-26T11:08:04;17.60;50.10
3842;DHT22;1936;47.074;15.336;2024-02-26T11:10:09;17.70;48.20
3842;DHT22;1936;47.074;15.336;2024-02-26T11:12:14;17.30;48.80
3842;DHT22;1936;47.074;15.336;2024-02-26T11:14:18;16.90;49.50
3842;DHT22;1936;47.074;15.336;2024-02-26T11:18:27;15.20;52.40
3842;DHT22;1936;47.074;15.336;2024-02-26T11:20:32;14.70;53.70
3842;DHT22;1936;47.074;15.336;2024-02-26T11:22:36;15.30;54.20
3842;DHT22;1936;47.074;15.336;2024-02-26T11:24:40;15.50;52.20
3842;DHT22;1936;47.074;15.336;2024-02-26T11:26:48;15.20;52.50
3842;DHT22;1936;47.074;15.336;2024-02-26T11:28:58;15.40;53.60
3842;DHT22;1936;47.074;15.336;2024-02-26T11:31:02;15.90;51.80
3842;DHT22;1936;47.074;15.336;2024-02-26T11:33:07;16.40;49.40
3842;DHT22;1936;47.074;15.336;2024-02-26T11:35:11;16.90;50.90
3842;DHT22;1936;47.074;15.336;2024-02-26T11:37:17;16.80;48.10
3842;DHT22;1936;47.074;15.336;2024-02-26T11:39:21;17.10;48.00
3842;DHT22;1936;47.074;15.336;2024-02-26T11:41:24;16.20;49.30
3842;DHT22;1936;47.074;15.336;2024-02-26T11:43:50;15.50;52.70
3842;DHT22;1936;47.074;15.336;2024-02-26T11:45:54;15.80;51.70
3842;DHT22;1936;47.074;15.336;2024-02-26T11:48:01;16.70;49.00
3842;DHT22;1936;47.074;15.336;2024-02-26T11:50:34;17.70;48.50
3842;DHT22;1936;47.074;15.336;2024-02-26T11:52:37;17.70;46.40
3842;DHT22;1936;47.074;15.336;2024-02-26T11:54:45;17.10;49.10
3842;DHT22;1936;47.074;15.336;2024-02-26T11:56:48;16.60;49.00
3842;DHT22;1936;47.074;15.336;2024-02-26T11:59:05;15.90;51.70
3842;DHT22;1936;47.074;15.336;2024-02-26T12:01:36;15.90;51.60
3842;DHT22;1936;47.074;15.336;2024-02-26T12:03:39;15.20;50.40
3842;DHT22;1936;47.074;15.336;2024-02-26T12:05:43;15.10;51.20
3842;DHT22;1936;47.074;15.336;2024-02-26T12:07:48;14.60;52.50
3842;DHT22;1936;47.074;15.336;2024-02-26T12:09:51;14.60;55.90
3842;DHT22;1936;47.074;15.336;2024-02-26T12:11:55;14.40;55.40
3842;DHT22;1936;47.074;15.336;2024-02-26T12:14:00;14.30;54.20
3842;DHT22;1936;47.074;15.336;2024-02-26T12:16:06;13.80;55.40
3842;DHT22;1936;47.074;15.336;2024-02-26T12:18:17;13.90;56.20
3842;DHT22;1936;47.074;15.336;2024-02-26T12:20:21;13.90;55.40
3842;DHT22;1936;47.074;15.336;2024-02-26T12:22:23;13.90;56.00
3842;DHT22;1936;47.074;15.336;2024-02-26T12:24:28;13.90;55.00
3842;DHT22;1936;47.074;15.336;2024-02-26T12:26:31;13.70;54.70
3842;DHT22;1936;47.074;15.336;2024-02-26T12:28:34;14.10;55.20
3842;DHT22;1936;47.074;15.336;2024-02-26T12:30:37;14.10;56.20
3842;DHT22;1936;47.074;15.336;2024-02-26T12:32:42;15.50;55.80
3842;DHT22;1936;47.074;15.336;2024-02-26T12:34:46;15.70;52.20
3842;DHT22;1936;47.074;15.336;2024-02-26T12:36:50;16.40;51.00
3842;DHT22;1936;47.074;15.336;2024-02-26T12:38:55;17.40;50.10
3842;DHT22;1936;47.074;15.336;2024-02-26T12:40:59;18.20;47.00
3842;DHT22;1936;47.074;15.336;2024-02-26T12:43:03;18.20;45.00
3842;DHT22;1936;47.074;15.336;2024-02-26T12:45:08;18.40;45.60
3842;DHT22;1936;47.074;15.336;2024-02-26T12:47:12;17.80;46.00
3842;DHT22;1936;47.074;15.336;2024-02-26T12:49:20;17.40;46.60
3842;DHT22;1936;47.074;15.336;2024-02-26T12:51:25;17.70;46.70
3842;DHT22;1936;47.074;15.336;2024-02-26T12:53:30;18.10;44.80
3842;DHT22;1936;47.074;15.336;2024-02-26T12:55:33;18.00;44.40
3842;DHT22;1936;47.074;15.336;2024-02-26T12:57:39;18.30;44.10
3842;DHT22;1936;47.074;15.336;2024-02-26T12:59:42;19.10;43.60
3842;DHT22;1936;47.074;15.336;2024-02-26T13:01:46;19.00;43.40
3842;DHT22;1936;47.074;15.336;2024-02-26T13:03:50;19.70;41.60
3842;DHT22;1936;47.074;15.336;2024-02-26T13:05:56;19.10;41.30
3842;DHT22;1936;47.074;15.336;2024-02-26T13:08:00;19.00;43.40
3842;DHT22;1936;47.074;15.336;2024-02-26T13:10:10;19.30;42.20
3842;DHT22;1936;47.074;15.336;2024-02-26T13:12:15;18.50;42.40
3842;DHT22;1936;47.074;15.336;2024-02-26T13:14:19;18.20;44.40
3842;DHT22;1936;47.074;15.336;2024-02-26T13:16:24;18.30;43.50
3842;DHT22;1936;47.074;15.336;2024-02-26T13:18:28;18.40;43.10
3842;DHT22;1936;47.074;15.336;2024-02-26T13:20:33;18.80;42.10
3842;DHT22;1936;47.074;15.336;2024-02-26T13:22:39;18.30;41.70
3842;DHT22;1936;47.074;15.336;2024-02-26T13:24:43;18.00;44.80
3842;DHT22;1936;47.074;15.336;2024-02-26T13:26:46;17.60;45.10
3842;DHT22;1936;47.074;15.336;2024-02-26T13:28:59;16.30;47.50
3842;DHT22;1936;47.074;15.336;2024-02-26T13:31:03;15.00;50.30
3842;DHT22;1936;47.074;15.336;2024-02-26T13:33:10;14.80;51.90
3842;DHT22;1936;47.074;15.336;2024-02-26T13:35:14;14.10;51.90
3842;DHT22;1936;47.074;15.336;2024-02-26T13:37:18;13.80;53.30
3842;DHT22;1936;47.074;15.336;2024-02-26T13:39:24;13.80;53.50
3842;DHT22;1936;47.074;15.336;2024-02-26T13:41:26;13.80;55.60
3842;DHT22;1936;47.074;15.336;2024-02-26T13:43:30;13.60;56.60